createdAt,value
2018-12-22T00:00:46.849Z,61.85
2018-12-22T00:03:21.493Z,62.41
2018-12-22T00:05:56.682Z,62.04
2018-12-22T00:08:31.608Z,62.76
2018-12-22T00:11:06.659Z,62.36
2018-12-22T00:13:40.425Z,62.40
2018-12-22T00:16:15.460Z,62.87
2018-12-22T00:18:50.440Z,63.86
2018-12-22T00:21:25.286Z,64.01
2018-12-22T00:24:00.062Z,63.94
2018-12-22T00:26:34.941Z,64.46
2018-12-22T00:29:09.661Z,64.87
2018-12-22T00:31:44.459Z,65.17
2018-12-22T00:34:19.227Z,65.49
2018-12-22T00:36:54.185Z,65.30
2018-12-22T00:39:28.935Z,65.81
2018-12-22T00:42:05.790Z,66.53
2018-12-22T00:44:39.814Z,67.16
2018-12-22T00:47:14.585Z,66.27
2018-12-22T00:49:48.667Z,66.11
2018-12-22T00:52:27.921Z,65.33
2018-12-22T00:55:03.250Z,65.01
2018-12-22T00:57:36.299Z,64.39
2018-12-22T01:00:10.457Z,65.09
2018-12-22T01:02:45.373Z,64.88
2018-12-22T01:05:20.509Z,64.50
2018-12-22T01:07:53.582Z,65.31
2018-12-22T01:10:27.224Z,64.81
2018-12-22T01:13:04.078Z,64.62
2018-12-22T01:15:39.041Z,65.03
2018-12-22T01:18:16.121Z,65.36
2018-12-22T01:26:32.003Z,65.77
2018-12-22T01:29:09.530Z,65.45
2018-12-22T01:31:48.833Z,65.76
2018-12-22T01:34:23.067Z,65.54
2018-12-22T01:36:57.903Z,65.11
2018-12-22T01:39:32.073Z,65.26
2018-12-22T01:42:07.024Z,65.61
2018-12-22T01:44:42.091Z,65.67
2018-12-22T01:47:17.065Z,65.37
2018-12-22T01:49:52.008Z,65.85
2018-12-22T01:52:29.573Z,65.47
2018-12-22T01:55:04.773Z,65.91
2018-12-22T01:57:39.422Z,65.71
2018-12-22T02:00:14.322Z,66.06
2018-12-22T02:02:49.257Z,66.51
2018-12-22T02:05:24.133Z,65.56
2018-12-22T02:08:01.470Z,65.86
2018-12-22T02:10:34.882Z,65.62
2018-12-22T02:13:09.742Z,65.28
2018-12-22T02:15:44.604Z,65.86
2018-12-22T02:18:21.874Z,66.41
2018-12-22T02:20:56.618Z,65.75
2018-12-22T02:23:30.594Z,66.02
2018-12-22T02:26:09.998Z,66.53
2018-12-22T02:28:43.409Z,66.36
2018-12-22T02:31:18.407Z,66.58
2018-12-22T02:33:57.773Z,66.01
2018-12-22T02:36:32.306Z,65.83
2018-12-22T02:39:07.145Z,65.53
2018-12-22T02:41:42.282Z,66.12
2018-12-22T02:44:21.795Z,67.10
2018-12-22T02:46:56.281Z,66.43
2018-12-22T02:49:31.173Z,66.98
2018-12-22T02:52:08.095Z,66.64
2018-12-22T02:54:43.295Z,66.74
2018-12-22T02:57:20.176Z,67.11
2018-12-22T02:59:55.448Z,67.76
2018-12-22T03:02:30.331Z,67.83
2018-12-22T03:05:05.302Z,68.28
2018-12-22T03:07:42.225Z,69.10
2018-12-22T03:10:17.234Z,69.20
2018-12-22T03:12:48.769Z,70.44
2018-12-22T03:15:22.906Z,70.83
2018-12-22T03:17:57.767Z,71.25
2018-12-22T03:20:32.564Z,71.50
2018-12-22T03:23:07.368Z,71.17
2018-12-22T03:25:42.442Z,72.02
2018-12-22T03:28:19.277Z,72.60
2018-12-22T03:30:54.373Z,73.38
2018-12-22T03:33:31.288Z,73.64
2018-12-22T03:36:06.939Z,73.33
2018-12-22T03:38:41.873Z,73.77
2018-12-22T03:41:15.667Z,73.42
2018-12-22T03:43:50.716Z,73.93
2018-12-22T03:46:25.256Z,73.77
2018-12-22T03:49:00.856Z,74.10
2018-12-22T03:51:35.553Z,74.12
2018-12-22T03:54:14.938Z,74.28
2018-12-22T03:56:49.343Z,74.55
2018-12-22T03:59:25.015Z,74.63
2018-12-22T04:01:59.350Z,74.95
2018-12-22T04:04:34.172Z,75.47
2018-12-22T04:07:08.869Z,75.78
2018-12-22T04:09:42.919Z,75.69
2018-12-22T04:12:17.907Z,76.39
2018-12-22T04:14:52.752Z,77.17
2018-12-22T04:17:27.369Z,77.87
2018-12-22T04:20:02.856Z,78.16
2018-12-22T04:22:38.434Z,78.21
2018-12-22T04:25:13.806Z,78.15
2018-12-22T04:27:47.815Z,78.18
2018-12-22T04:30:24.850Z,78.14
2018-12-22T04:32:59.690Z,78.33
2018-12-22T04:35:34.782Z,78.32
2018-12-22T04:38:09.639Z,77.92
2018-12-22T04:40:44.478Z,77.23
2018-12-22T04:43:23.733Z,77.05
2018-12-22T04:45:58.342Z,76.47
2018-12-22T04:48:35.433Z,76.54
2018-12-22T04:51:10.140Z,76.33
2018-12-22T04:53:45.122Z,75.56
2018-12-22T04:56:15.886Z,76.10
2018-12-22T04:58:47.205Z,75.63
2018-12-22T05:01:22.695Z,75.89
2018-12-22T05:03:56.798Z,74.60
2018-12-22T05:06:31.882Z,74.61
2018-12-22T05:09:06.588Z,75.31
2018-12-22T05:11:41.208Z,75.32
2018-12-22T05:14:16.005Z,75.58
2018-12-22T05:16:50.874Z,75.05
2018-12-22T05:19:22.173Z,74.58
2018-12-22T05:21:56.280Z,74.20
2018-12-22T05:24:31.122Z,74.69
2018-12-22T05:27:04.775Z,74.39
2018-12-22T05:29:41.550Z,73.88
2018-12-22T05:32:16.599Z,73.90
2018-12-22T05:34:51.584Z,74.04
2018-12-22T05:37:26.534Z,73.23
2018-12-22T05:39:57.955Z,72.90
2018-12-22T05:42:33.051Z,73.17
2018-12-22T05:45:07.887Z,72.33
2018-12-22T05:47:42.586Z,72.70
2018-12-22T05:50:17.582Z,72.51
2018-12-22T05:52:52.658Z,72.84
2018-12-22T05:55:27.653Z,72.85
2018-12-22T05:58:02.779Z,72.50
2018-12-22T06:00:37.595Z,71.90
2018-12-22T06:03:12.437Z,72.49
2018-12-22T06:05:47.447Z,72.30
2018-12-22T06:08:22.445Z,72.29
2018-12-22T06:10:57.336Z,72.11
2018-12-22T06:13:32.138Z,72.44
2018-12-22T06:16:06.073Z,72.14
2018-12-22T06:18:40.919Z,72.69
2018-12-22T06:21:15.925Z,72.23
2018-12-22T06:23:50.754Z,72.13
2018-12-22T06:26:27.551Z,72.25
2018-12-22T06:29:02.631Z,72.20
2018-12-22T06:31:37.541Z,72.44
2018-12-22T06:34:12.703Z,71.77
2018-12-22T06:36:47.521Z,71.70
2018-12-22T06:39:23.288Z,71.94
2018-12-22T06:41:57.177Z,71.71
2018-12-22T06:44:30.810Z,72.10
2018-12-22T06:47:05.571Z,73.00
2018-12-22T06:49:42.546Z,73.04
2018-12-22T06:52:17.365Z,72.68
2018-12-22T06:54:52.417Z,73.23
2018-12-22T06:57:28.100Z,73.38
2018-12-22T07:00:03.357Z,73.00
2018-12-22T07:02:37.102Z,72.97
2018-12-22T07:05:12.123Z,73.54
2018-12-22T07:07:46.507Z,73.38
2018-12-22T07:10:22.083Z,73.87
2018-12-22T07:12:57.018Z,73.91
2018-12-22T07:15:31.845Z,74.30
2018-12-22T07:18:06.995Z,74.72
2018-12-22T07:20:41.665Z,74.69
2018-12-22T07:23:12.427Z,75.32
2018-12-22T07:25:45.686Z,75.75
2018-12-22T07:28:20.794Z,76.37
2018-12-22T07:30:57.959Z,76.29
2018-12-22T07:33:32.594Z,75.82
2018-12-22T07:36:10.106Z,76.26
2018-12-22T07:38:45.301Z,76.15
2018-12-22T07:41:18.324Z,76.17
2018-12-22T07:43:53.586Z,75.36
2018-12-22T07:46:28.353Z,75.69
2018-12-22T07:49:03.326Z,74.95
2018-12-22T07:51:37.261Z,74.91
2018-12-22T07:54:08.662Z,73.81
2018-12-22T07:56:44.058Z,73.25
2018-12-22T07:59:19.042Z,72.52
2018-12-22T08:01:53.957Z,73.02
2018-12-22T08:04:33.528Z,72.81
2018-12-22T08:07:07.948Z,73.03
2018-12-22T08:09:42.719Z,72.75
2018-12-22T08:12:19.720Z,72.02
2018-12-22T08:14:56.531Z,72.59
2018-12-22T08:17:30.340Z,72.87
2018-12-22T08:20:05.411Z,73.12
2018-12-22T08:22:39.064Z,72.90
2018-12-22T08:25:13.885Z,72.76
2018-12-22T08:27:48.800Z,72.12
2018-12-22T08:30:25.597Z,73.14
2018-12-22T08:32:59.398Z,73.94
2018-12-22T08:35:33.086Z,76.22
2018-12-22T08:38:10.011Z,77.59
2018-12-22T08:40:44.642Z,79.07
2018-12-22T08:43:19.668Z,80.56
2018-12-22T08:45:52.817Z,81.39
2018-12-22T08:48:28.358Z,81.96
2018-12-22T08:51:03.119Z,81.43
2018-12-22T08:53:38.061Z,81.39
2018-12-22T08:56:18.240Z,81.73
2018-12-22T08:58:58.330Z,81.01
2018-12-22T09:01:32.804Z,81.35
2018-12-22T09:04:08.496Z,81.61
2018-12-22T09:06:42.382Z,82.21
2018-12-22T09:09:17.248Z,83.84
2018-12-22T09:11:52.104Z,84.45
2018-12-22T09:14:27.155Z,84.89
2018-12-22T09:17:02.054Z,85.49
2018-12-22T09:19:42.431Z,85.15
2018-12-22T09:22:22.561Z,84.83
2018-12-22T09:24:56.903Z,82.62
2018-12-22T09:27:31.942Z,82.79
2018-12-22T09:30:08.730Z,82.19
2018-12-22T09:32:42.172Z,81.56
2018-12-22T09:35:15.281Z,80.71
2018-12-22T09:37:50.227Z,79.83
2018-12-22T09:40:25.217Z,79.00
2018-12-22T09:43:00.194Z,79.08
2018-12-22T09:45:37.957Z,79.22
2018-12-22T09:48:12.976Z,77.99
2018-12-22T09:50:47.791Z,76.41
2018-12-22T09:53:20.877Z,75.95
2018-12-22T09:55:58.610Z,74.92
2018-12-22T09:58:33.349Z,75.19
2018-12-22T10:01:09.451Z,74.69
2018-12-22T10:03:43.268Z,74.23
2018-12-22T10:06:18.686Z,73.40
2018-12-22T10:08:52.838Z,73.75
2018-12-22T10:11:33.115Z,73.53
2018-12-22T10:14:08.637Z,73.14
2018-12-22T10:16:43.591Z,72.68
2018-12-22T10:19:18.484Z,71.44
2018-12-22T10:21:52.809Z,72.40
2018-12-22T10:24:26.490Z,71.95
2018-12-22T10:27:07.879Z,71.59
2018-12-22T10:29:43.180Z,72.31
2018-12-22T10:32:19.061Z,71.56
2018-12-22T10:34:58.985Z,71.49
2018-12-22T10:37:33.482Z,72.16
2018-12-22T10:40:07.156Z,72.46
2018-12-22T10:42:48.124Z,72.44
2018-12-22T10:45:24.179Z,72.50
2018-12-22T10:47:59.597Z,72.52
2018-12-22T10:50:35.161Z,73.72
2018-12-22T10:53:10.213Z,73.61
2018-12-22T10:55:44.279Z,72.95
2018-12-22T10:58:19.234Z,72.59
2018-12-22T11:00:53.215Z,73.87
2018-12-22T11:03:28.095Z,72.99
2018-12-22T11:06:02.282Z,72.48
2018-12-22T11:08:37.078Z,72.79
2018-12-22T11:11:12.140Z,72.07
2018-12-22T11:13:43.923Z,72.07
2018-12-22T11:16:28.994Z,71.35
2018-12-22T11:19:12.388Z,71.01
2018-12-22T11:24:35.873Z,70.97
2018-12-22T11:27:21.659Z,71.09
2018-12-22T11:29:58.926Z,71.45
2018-12-22T11:32:36.894Z,71.93
2018-12-22T11:35:16.684Z,72.50
2018-12-22T11:37:56.788Z,71.95
2018-12-22T11:40:34.120Z,73.07
2018-12-22T11:43:06.943Z,73.46
2018-12-22T11:45:42.601Z,73.36
2018-12-22T11:49:19.149Z,74.03
2018-12-22T11:51:53.011Z,76.45
2018-12-22T11:54:33.913Z,77.87
2018-12-22T11:57:06.913Z,79.05
2018-12-22T11:59:41.984Z,79.75
2018-12-22T12:02:16.156Z,80.34
2018-12-22T12:04:47.555Z,79.38
2018-12-22T12:07:18.363Z,79.09
2018-12-22T12:09:50.710Z,77.64
2018-12-22T12:12:21.590Z,78.52
2018-12-22T12:14:55.301Z,78.95
2018-12-22T12:17:35.678Z,78.63
2018-12-22T12:20:06.804Z,78.96
2018-12-22T12:22:38.380Z,79.11
2018-12-22T12:25:12.198Z,79.56
2018-12-22T12:27:44.179Z,79.25
2018-12-22T12:30:17.683Z,79.20
2018-12-22T12:32:52.888Z,79.09
2018-12-22T12:35:27.298Z,78.88
2018-12-22T12:38:08.893Z,79.38
2018-12-22T12:40:46.422Z,78.84
2018-12-22T12:43:26.964Z,79.25
2018-12-22T12:46:07.153Z,78.64
2018-12-22T12:48:41.091Z,78.80
2018-12-22T12:51:14.477Z,78.71
2018-12-22T12:53:47.719Z,78.37
2018-12-22T12:56:19.213Z,78.17
2018-12-22T12:58:52.874Z,77.94
2018-12-22T13:01:24.503Z,78.29
2018-12-22T13:04:03.329Z,78.13
2018-12-22T13:06:37.424Z,78.73
2018-12-22T13:09:09.435Z,78.95
2018-12-22T13:11:42.906Z,78.67
2018-12-22T13:14:17.307Z,78.77
2018-12-22T13:16:50.358Z,78.95
2018-12-22T13:19:21.860Z,79.31
2018-12-22T13:21:55.516Z,79.82
2018-12-22T13:24:27.189Z,79.42
2018-12-22T13:27:00.466Z,80.36
2018-12-22T13:29:33.641Z,80.48
2018-12-22T13:32:09.623Z,81.30
2018-12-22T13:34:47.994Z,81.22
2018-12-22T13:37:21.377Z,81.85
2018-12-22T13:40:01.710Z,81.95
2018-12-22T13:42:43.593Z,81.69
2018-12-22T13:45:17.168Z,81.66
2018-12-22T13:47:52.831Z,81.31
2018-12-22T13:50:23.671Z,81.16
2018-12-22T13:52:57.471Z,80.01
2018-12-22T13:55:30.721Z,79.97
2018-12-22T14:00:59.420Z,78.51
2018-12-22T14:03:39.783Z,78.45
2018-12-22T14:06:19.610Z,78.17
2018-12-22T14:08:55.174Z,78.04
2018-12-22T14:11:30.074Z,78.32
2018-12-22T14:14:05.574Z,77.10
2018-12-22T14:16:47.156Z,77.91
2018-12-22T14:19:22.960Z,77.42
2018-12-22T14:21:58.728Z,77.22
2018-12-22T14:24:36.611Z,77.78
2018-12-22T14:27:12.069Z,77.21
2018-12-22T14:29:49.124Z,76.94
2018-12-22T14:32:26.951Z,75.83
2018-12-22T14:35:06.236Z,76.28
2018-12-22T14:37:44.270Z,76.15
2018-12-22T14:43:19.862Z,76.31
2018-12-22T14:45:53.952Z,75.71
2018-12-22T14:48:34.475Z,75.72
2018-12-22T14:51:11.436Z,74.97
2018-12-22T14:53:46.179Z,75.52
2018-12-22T14:56:18.463Z,75.94
2018-12-22T14:58:53.762Z,75.65
2018-12-22T15:01:33.245Z,76.05
2018-12-22T15:04:12.940Z,76.12
2018-12-22T15:06:47.635Z,76.41
2018-12-22T15:09:22.259Z,76.15
2018-12-22T15:11:57.196Z,76.08
2018-12-22T15:14:32.813Z,76.22
2018-12-22T15:17:07.761Z,76.32
2018-12-22T15:19:42.704Z,76.00
2018-12-22T15:22:17.526Z,76.70
2018-12-22T15:24:52.459Z,76.33
2018-12-22T15:27:29.572Z,77.23
2018-12-22T15:30:08.932Z,76.84
2018-12-22T15:32:44.556Z,77.35
2018-12-22T15:35:18.366Z,76.88
2018-12-22T15:37:58.611Z,77.52
2018-12-22T15:40:34.122Z,77.63
2018-12-22T15:43:08.000Z,77.46
2018-12-22T15:45:42.895Z,77.51
2018-12-22T15:48:17.809Z,77.24
2018-12-22T15:50:52.971Z,77.25
2018-12-22T15:53:27.850Z,77.32
2018-12-22T15:56:01.907Z,77.34
2018-12-22T15:58:37.270Z,77.43
2018-12-22T16:01:11.212Z,77.67
2018-12-22T16:03:46.109Z,76.95
2018-12-22T16:06:21.222Z,76.60
2018-12-22T16:08:56.105Z,76.23
2018-12-22T16:11:31.015Z,76.14
2018-12-22T16:14:05.875Z,76.56
2018-12-22T16:16:40.910Z,76.32
2018-12-22T16:19:20.349Z,76.75
2018-12-22T16:21:54.877Z,78.21
2018-12-22T16:24:29.759Z,78.70
2018-12-22T16:27:04.940Z,79.97
2018-12-22T16:29:40.916Z,80.56
2018-12-22T16:32:16.511Z,81.91
2018-12-22T16:35:02.514Z,82.03
2018-12-22T16:37:37.383Z,82.79
2018-12-22T16:40:11.543Z,82.97
2018-12-22T16:42:45.395Z,84.00
2018-12-22T16:45:24.792Z,83.60
2018-12-22T16:48:00.232Z,84.08
2018-12-22T16:50:36.422Z,84.26
2018-12-22T16:53:15.809Z,84.55
2018-12-22T16:55:55.637Z,84.78
2018-12-22T16:58:32.376Z,84.78
2018-12-22T17:01:23.203Z,84.84
2018-12-22T17:03:56.101Z,84.91
2018-12-22T17:06:31.396Z,84.60
2018-12-22T17:09:07.194Z,84.79
2018-12-22T17:11:41.815Z,84.66
2018-12-22T17:14:16.630Z,84.72
2018-12-22T17:16:50.402Z,84.01
2018-12-22T17:19:26.125Z,84.38
2018-12-22T17:22:06.711Z,84.06
2018-12-22T17:24:45.664Z,84.22
2018-12-22T17:27:22.718Z,83.70
2018-12-22T17:29:59.537Z,84.23
2018-12-22T17:32:35.075Z,83.96
2018-12-22T17:35:11.566Z,83.18
2018-12-22T17:37:46.311Z,83.47
2018-12-22T17:40:21.415Z,83.24
2018-12-22T17:42:54.489Z,83.35
2018-12-22T17:45:31.856Z,83.37
2018-12-22T17:48:06.928Z,82.82
2018-12-22T17:50:42.107Z,82.89
2018-12-22T17:53:17.706Z,82.64
2018-12-22T17:55:54.545Z,82.46
2018-12-22T17:58:34.727Z,82.14
2018-12-22T18:01:05.714Z,82.13
2018-12-22T18:03:43.006Z,82.27
2018-12-22T18:06:20.780Z,81.69
2018-12-22T18:08:56.027Z,81.65
2018-12-22T18:11:30.606Z,81.75
2018-12-22T18:14:04.711Z,81.94
2018-12-22T18:16:39.724Z,81.84
2018-12-22T18:19:14.834Z,81.73
2018-12-22T18:21:55.443Z,80.90
2018-12-22T18:24:30.297Z,80.80
2018-12-22T18:27:05.300Z,80.65
2018-12-22T18:29:40.292Z,81.18
2018-12-22T18:32:15.214Z,81.10
2018-12-22T18:34:51.714Z,81.34
2018-12-22T18:37:29.093Z,81.14
2018-12-22T18:40:08.793Z,81.25
2018-12-22T18:42:49.585Z,81.24
2018-12-22T18:45:23.996Z,81.25
2018-12-22T18:47:56.923Z,80.49
2018-12-22T18:50:31.587Z,80.59
2018-12-22T18:53:11.766Z,79.88
2018-12-22T18:55:45.229Z,80.24
2018-12-22T18:58:20.203Z,80.03
2018-12-22T19:00:55.238Z,80.15
2018-12-22T19:03:35.524Z,79.55
2018-12-22T19:06:06.733Z,79.44
2018-12-22T19:08:41.290Z,79.12
2018-12-22T19:11:16.963Z,79.17
2018-12-22T19:13:51.928Z,79.26
2018-12-22T19:16:26.817Z,78.93
2018-12-22T19:19:02.256Z,79.29
2018-12-22T19:21:36.640Z,79.42
2018-12-22T19:24:11.892Z,79.29
2018-12-22T19:26:49.566Z,78.66
2018-12-22T19:29:24.470Z,78.95
2018-12-22T19:31:59.182Z,78.53
2018-12-22T19:34:34.280Z,77.80
2018-12-22T19:37:09.298Z,78.00
2018-12-22T19:39:46.339Z,77.74
2018-12-22T19:42:21.246Z,77.74
2018-12-22T19:45:02.834Z,77.40
2018-12-22T19:47:37.357Z,77.59
2018-12-22T19:50:15.096Z,77.33
2018-12-22T19:52:50.469Z,77.26
2018-12-22T19:55:24.075Z,76.90
2018-12-22T19:57:58.975Z,77.27
2018-12-22T20:00:34.386Z,78.07
2018-12-22T20:03:08.837Z,77.96
2018-12-22T20:05:43.011Z,78.08
2018-12-22T20:08:20.483Z,77.19
2018-12-22T20:10:55.403Z,77.24
2018-12-22T20:13:30.354Z,77.18
2018-12-22T20:16:08.966Z,76.64
2018-12-22T20:18:43.443Z,76.32
2018-12-22T20:21:24.640Z,76.82
2018-12-22T20:23:59.161Z,76.48
2018-12-22T20:26:33.814Z,75.77
2018-12-22T20:29:15.595Z,76.80
2018-12-22T20:31:53.687Z,76.53
2018-12-22T20:34:31.613Z,76.12
2018-12-22T20:37:07.094Z,76.34
2018-12-22T20:39:44.039Z,76.36
2018-12-22T20:42:19.604Z,76.83
2018-12-22T20:44:54.842Z,76.86
2018-12-22T20:47:30.036Z,76.39
2018-12-22T20:50:04.728Z,76.70
2018-12-22T20:52:39.476Z,77.00
2018-12-22T20:55:14.485Z,76.99
2018-12-22T20:57:50.210Z,77.27
2018-12-22T21:00:29.624Z,77.16
2018-12-22T21:03:05.069Z,76.89
2018-12-22T21:05:42.046Z,77.09
2018-12-22T21:08:17.155Z,76.89
2018-12-22T21:10:54.766Z,77.03
2018-12-22T21:13:29.423Z,76.65
2018-12-22T21:16:04.433Z,76.64
2018-12-22T21:18:38.283Z,77.00
2018-12-22T21:21:25.041Z,77.46
2018-12-22T21:24:02.860Z,78.02
2018-12-22T21:26:40.835Z,77.95
2018-12-22T21:29:15.504Z,78.27
2018-12-22T21:31:50.303Z,78.50
2018-12-22T21:34:28.436Z,78.32
2018-12-22T21:37:03.296Z,78.29
2018-12-22T21:39:38.161Z,78.69
2018-12-22T21:42:18.575Z,79.28
2018-12-22T21:44:53.905Z,79.50
2018-12-22T21:47:27.770Z,79.55
2018-12-22T21:50:08.034Z,79.88
2018-12-22T21:52:50.081Z,80.09
2018-12-22T21:55:25.306Z,80.10
2018-12-22T21:57:58.417Z,80.06
2018-12-22T22:00:33.166Z,79.80
2018-12-22T22:03:10.503Z,79.32
2018-12-22T22:05:47.498Z,79.14
2018-12-22T22:08:24.201Z,79.24
2018-12-22T22:11:01.575Z,79.75
2018-12-22T22:13:36.287Z,78.81
2018-12-22T22:16:11.387Z,78.67
2018-12-22T22:18:48.259Z,78.51
2018-12-22T22:21:27.650Z,78.23
2018-12-22T22:24:02.878Z,78.59
2018-12-22T22:26:37.680Z,78.19
2018-12-22T22:29:12.647Z,78.02
2018-12-22T22:31:47.634Z,77.99
2018-12-22T22:34:22.649Z,78.05
2018-12-22T22:36:55.653Z,77.37
2018-12-22T22:39:35.184Z,77.50
2018-12-22T22:42:10.329Z,77.62
2018-12-22T22:44:43.515Z,78.28
2018-12-22T22:47:18.491Z,78.51
2018-12-22T22:49:53.589Z,78.22
2018-12-22T22:52:30.871Z,77.98
2018-12-22T22:55:05.622Z,78.07
2018-12-22T22:57:40.817Z,77.99
2018-12-22T23:00:26.388Z,78.41
2018-12-22T23:03:04.170Z,78.48
2018-12-22T23:05:37.558Z,78.70
2018-12-22T23:08:12.264Z,79.05
2018-12-22T23:10:45.149Z,79.13
2018-12-22T23:13:18.082Z,79.77
2018-12-22T23:15:50.425Z,79.99
2018-12-22T23:18:23.750Z,79.28
2018-12-22T23:20:55.225Z,79.21
2018-12-22T23:23:28.699Z,79.52
2018-12-22T23:26:01.775Z,79.32
2018-12-22T23:28:34.822Z,79.60
2018-12-22T23:31:09.813Z,79.57
2018-12-22T23:33:45.185Z,80.29
2018-12-22T23:36:16.517Z,79.95
2018-12-22T23:38:49.937Z,80.17
2018-12-22T23:41:23.851Z,80.34
2018-12-22T23:43:56.914Z,80.21
2018-12-22T23:46:30.050Z,80.20
2018-12-22T23:49:03.800Z,80.80
2018-12-22T23:51:36.793Z,80.92
2018-12-22T23:54:10.641Z,80.92
2018-12-22T23:56:43.626Z,80.54
2018-12-22T23:59:19.385Z,81.04
